Time;durP1;ratioP1;P1;durP2;ratioP2;P2;SDS_P1;SDS_P2;PMS_P1;PMS_P2;Temp;Humidity;BMP_temperature;BMP_pressure;BME280_temperature;BME280_humidity;BME280_pressure;Samples;Min_cycle;Max_cycle;Signal;HPM_P1;HPM_P2
2023/08/31 00:02:21;;;;;;;4.15;2.33;;;;;;;11.85;94.53;100684.00;4964124;28;20054;-74
2023/08/31 00:04:53;;;;;;;3.90;2.78;;;;;;;11.83;94.78;100683.19;4956962;28;20042;-74
2023/08/31 00:07:21;;;;;;;4.10;2.72;;;;;;;11.79;94.80;100683.31;4965183;28;20565;-75
2023/08/31 00:09:49;;;;;;;4.13;2.80;;;;;;;11.77;95.43;100676.38;4959912;28;20307;-75
2023/08/31 00:12:16;;;;;;;3.60;2.65;;;;;;;11.72;95.39;100681.81;4964812;28;20302;-75
2023/08/31 00:14:43;;;;;;;6.07;2.92;;;;;;;11.71;95.68;100681.84;4963377;28;20042;-75
2023/08/31 00:17:10;;;;;;;5.47;3.10;;;;;;;11.70;95.82;100677.53;4963311;28;20779;-75
2023/08/31 00:19:38;;;;;;;4.35;2.95;;;;;;;11.68;95.87;100674.91;4964517;28;20439;-76
2023/08/31 00:22:05;;;;;;;3.80;2.95;;;;;;;11.66;95.94;100671.47;4957803;28;20305;-76
2023/08/31 00:24:35;;;;;;;3.97;3.40;;;;;;;11.67;96.07;100673.19;4960412;28;20399;-77
2023/08/31 00:27:03;;;;;;;6.30;3.85;;;;;;;11.63;96.19;100672.44;4961722;28;20261;-76
2023/08/31 00:29:31;;;;;;;6.57;3.63;;;;;;;11.61;96.24;100676.06;4963076;28;20031;-76
2023/08/31 00:31:58;;;;;;;6.68;3.53;;;;;;;11.61;96.52;100676.06;4960864;28;20047;-74
2023/08/31 00:34:25;;;;;;;5.18;4.00;;;;;;;11.58;96.72;100674.41;4961756;28;20265;-74
2023/08/31 00:36:52;;;;;;;3.90;3.50;;;;;;;11.60;96.90;100680.47;4961008;28;20110;-76
2023/08/31 00:39:20;;;;;;;4.70;3.60;;;;;;;11.59;97.04;100684.06;4962724;28;20415;-75
2023/08/31 00:41:47;;;;;;;6.10;4.30;;;;;;;11.57;96.84;100680.63;4962292;28;20063;-76
2023/08/31 00:44:15;;;;;;;5.10;4.13;;;;;;;11.55;97.37;100686.88;4962039;28;20047;-77
2023/08/31 00:46:47;;;;;;;5.63;4.40;;;;;;;11.49;97.45;100687.97;4957920;28;20600;-76
2023/08/31 00:49:15;;;;;;;6.05;4.88;;;;;;;11.46;97.48;100686.28;4963458;28;20065;-75
2023/08/31 00:51:48;;;;;;;5.38;4.28;;;;;;;11.44;97.76;100682.84;4930213;28;20369;-75
2023/08/31 00:54:18;;;;;;;7.07;5.10;;;;;;;11.44;97.90;100685.50;4960947;28;20062;-75
2023/08/31 00:56:45;;;;;;;5.60;4.57;;;;;;;11.42;97.83;100686.44;4961959;28;20462;-75
2023/08/31 00:59:14;;;;;;;6.13;4.65;;;;;;;11.42;98.12;100686.44;4964028;28;20101;-75
2023/08/31 01:02:34;;;;;;;7.45;4.78;;;;;;;11.44;98.78;100679.34;4961945;28;20045;-76
2023/08/31 01:05:47;;;;;;;9.20;4.95;;;;;;;11.39;98.24;100678.66;4918531;28;20470;-75
2023/08/31 01:08:29;;;;;;;10.35;5.45;;;;;;;11.36;98.52;100676.97;4965569;28;20268;-75
2023/08/31 01:11:35;;;;;;;9.52;6.05;;;;;;;11.34;98.66;100673.53;4949760;28;20058;-75
2023/08/31 01:14:16;;;;;;;6.35;5.47;;;;;;;11.30;98.54;100678.03;4922419;28;20070;-75
2023/08/31 01:16:49;;;;;;;6.20;5.22;;;;;;;11.27;98.76;100674.66;4966536;28;20579;-74
2023/08/31 01:19:44;;;;;;;8.80;6.07;;;;;;;11.26;99.22;100675.56;4964780;28;20039;-75
2023/08/31 01:23:04;;;;;;;9.27;5.88;;;;;;;11.19;99.28;100678.44;4966469;28;20055;-74
2023/08/31 01:25:32;;;;;;;7.22;5.55;;;;;;;11.17;99.17;100692.59;4947933;28;20046;-75
2023/08/31 01:28:02;;;;;;;6.90;6.10;;;;;;;11.12;99.36;100684.84;4957463;28;20496;-75
2023/08/31 01:30:31;;;;;;;7.07;5.90;;;;;;;11.10;99.46;100693.72;4962483;28;20050;-74
2023/08/31 01:32:58;;;;;;;7.38;6.18;;;;;;;11.10;100.00;100694.59;4967684;28;20047;-75
2023/08/31 01:35:27;;;;;;;8.52;6.82;;;;;;;11.09;99.99;100689.38;4964440;28;20047;-75
2023/08/31 01:37:59;;;;;;;8.45;5.95;;;;;;;11.05;100.00;100688.59;4967764;28;20050;-75
2023/08/31 01:40:57;;;;;;;7.97;6.25;;;;;;;11.05;100.00;100695.66;4963595;28;20058;-75
2023/08/31 01:43:27;;;;;;;10.38;6.38;;;;;;;11.04;100.00;100689.50;4966802;28;20376;-74
2023/08/31 01:45:55;;;;;;;10.98;7.43;;;;;;;11.09;100.00;100689.38;4967906;28;20046;-74
2023/08/31 01:48:22;;;;;;;10.88;7.85;;;;;;;11.13;100.00;100696.25;4968880;28;20167;-75
2023/08/31 01:50:49;;;;;;;9.00;7.63;;;;;;;11.15;100.00;100697.91;4967612;28;20042;-75
2023/08/31 01:53:16;;;;;;;12.07;8.52;;;;;;;11.16;100.00;100698.78;4967243;28;20597;-75
2023/08/31 01:55:43;;;;;;;11.15;7.88;;;;;;;11.19;100.00;100702.19;4949605;28;20043;-75
2023/08/31 01:58:10;;;;;;;9.70;8.50;;;;;;;11.25;100.00;100698.47;4951780;28;20582;-74
2023/08/31 02:00:38;;;;;;;11.57;8.38;;;;;;;11.30;100.00;100700.94;4946612;28;20065;-74
2023/08/31 02:03:07;;;;;;;9.40;8.38;;;;;;;11.34;100.00;100697.28;4948521;28;20447;-74
2023/08/31 02:05:35;;;;;;;10.15;9.05;;;;;;;11.39;100.00;100691.84;4966482;28;20051;-73
2023/08/31 02:08:02;;;;;;;12.45;9.65;;;;;;;11.42;100.00;100694.34;4967692;28;20459;-74
2023/08/31 02:10:29;;;;;;;11.40;9.48;;;;;;;11.42;100.00;100691.72;4967063;28;20062;-74
2023/08/31 02:12:56;;;;;;;12.43;9.75;;;;;;;11.45;100.00;100699.53;4966933;28;20142;-74
2023/08/31 02:15:24;;;;;;;10.27;8.98;;;;;;;11.48;100.00;100696.78;4963328;28;20043;-74
2023/08/31 02:17:54;;;;;;;14.20;9.98;;;;;;;11.53;100.00;100696.63;4965140;28;20038;-75
2023/08/31 02:20:21;;;;;;;15.15;10.20;;;;;;;11.55;100.00;100692.16;4962740;28;20043;-74
2023/08/31 02:22:50;;;;;;;14.15;10.00;;;;;;;11.54;100.00;100690.44;4947600;28;20090;-76
2023/08/31 02:25:17;;;;;;;13.00;9.80;;;;;;;11.57;100.00;100695.56;4948812;28;20039;-75
2023/08/31 02:27:45;;;;;;;13.10;9.98;;;;;;;11.60;100.00;100691.03;4967528;28;20700;-75
2023/08/31 02:30:13;;;;;;;13.20;10.38;;;;;;;11.61;100.00;100684.84;4966806;28;20443;-73
2023/08/31 02:32:40;;;;;;;12.15;10.25;;;;;;;11.65;100.00;100689.09;4964567;28;20031;-73
2023/08/31 02:35:07;;;;;;;11.60;10.35;;;;;;;11.70;100.00;100688.94;4963421;28;20707;-73
2023/08/31 02:37:34;;;;;;;11.73;9.57;;;;;;;11.77;100.00;100686.94;4965398;28;20043;-72
2023/08/31 02:40:02;;;;;;;11.60;9.50;;;;;;;11.83;100.00;100693.75;4955075;28;20879;-72
2023/08/31 02:42:29;;;;;;;12.88;9.98;;;;;;;11.90;100.00;100689.94;4966927;28;20050;-73
2023/08/31 02:44:56;;;;;;;12.65;10.00;;;;;;;11.91;100.00;100692.53;4965043;28;20125;-73
2023/08/31 02:47:23;;;;;;;11.45;9.60;;;;;;;11.93;100.00;100690.69;4952241;28;20234;-73
2023/08/31 02:49:50;;;;;;;12.82;10.32;;;;;;;11.95;100.00;100696.78;4964944;28;20658;-73
2023/08/31 02:52:17;;;;;;;14.50;10.30;;;;;;;11.95;100.00;100686.22;4963131;28;20046;-73
2023/08/31 02:54:45;;;;;;;13.07;10.07;;;;;;;11.98;100.00;100694.97;4966609;28;20134;-76
2023/08/31 02:57:12;;;;;;;13.68;10.48;;;;;;;11.96;100.00;100695.00;4951612;28;20098;-76
2023/08/31 02:59:39;;;;;;;13.57;9.48;;;;;;;11.95;100.00;100701.22;4963291;28;20034;-75
2023/08/31 03:02:08;;;;;;;12.27;9.90;;;;;;;11.96;100.00;100705.56;4949718;28;20047;-76
2023/08/31 03:04:35;;;;;;;13.43;10.32;;;;;;;11.98;100.00;100701.13;4951290;28;20042;-74
2023/08/31 03:07:04;;;;;;;13.43;9.77;;;;;;;11.98;100.00;100700.28;4964862;28;20107;-74
2023/08/31 03:09:32;;;;;;;11.55;9.10;;;;;;;11.97;100.00;100702.00;4948119;28;20070;-74
2023/08/31 03:11:59;;;;;;;11.02;9.10;;;;;;;11.99;100.00;100699.34;4950347;28;20053;-74
2023/08/31 03:14:26;;;;;;;11.57;9.40;;;;;;;12.03;100.00;100704.47;4946919;28;20089;-74
2023/08/31 03:16:53;;;;;;;12.70;9.30;;;;;;;12.05;100.00;100694.69;4954345;28;20035;-74
2023/08/31 03:19:20;;;;;;;10.98;8.93;;;;;;;12.06;100.00;100691.09;4961052;28;20355;-74
2023/08/31 03:21:48;;;;;;;10.88;9.05;;;;;;;12.07;100.00;100690.19;4965195;28;20102;-74
2023/08/31 03:24:15;;;;;;;11.10;9.15;;;;;;;12.07;100.00;100699.91;4964866;28;20113;-74
2023/08/31 03:26:42;;;;;;;11.20;8.90;;;;;;;12.03;100.00;100701.81;4947695;28;20042;-74
2023/08/31 03:29:09;;;;;;;9.95;8.98;;;;;;;12.00;100.00;100699.28;4964204;28;20411;-74
2023/08/31 03:31:36;;;;;;;13.93;9.77;;;;;;;11.96;100.00;100700.28;4948635;28;20187;-74
2023/08/31 03:34:04;;;;;;;11.05;9.25;;;;;;;11.89;100.00;100682.94;4949140;28;20038;-75
2023/08/31 03:36:31;;;;;;;13.25;9.88;;;;;;;11.82;100.00;100682.31;4950310;28;20884;-75
2023/08/31 03:38:58;;;;;;;12.85;9.45;;;;;;;11.77;100.00;100682.50;4964544;28;20343;-74
2023/08/31 03:41:25;;;;;;;11.75;10.30;;;;;;;11.74;100.00;100685.28;4963909;28;20377;-74
2023/08/31 03:43:53;;;;;;;12.73;9.80;;;;;;;11.72;100.00;100680.94;4962936;28;20070;-74
2023/08/31 03:46:22;;;;;;;11.63;10.05;;;;;;;11.71;100.00;100688.00;4962008;28;20053;-75
2023/08/31 03:48:49;;;;;;;11.57;9.48;;;;;;;11.71;100.00;100688.00;4949567;28;20499;-76
2023/08/31 03:51:16;;;;;;;10.90;9.77;;;;;;;11.70;100.00;100688.94;4966159;28;20047;-76
2023/08/31 03:53:44;;;;;;;16.48;11.40;;;;;;;11.68;100.00;100692.56;4948178;28;20039;-75
2023/08/31 03:56:12;;;;;;;11.98;10.25;;;;;;;11.63;100.00;100696.22;4948844;28;20039;-74
2023/08/31 03:58:40;;;;;;;11.65;10.43;;;;;;;11.58;100.00;100687.63;4952326;28;20829;-74
2023/08/31 04:01:07;;;;;;;14.68;10.95;;;;;;;11.56;100.00;100691.22;4962756;28;20337;-74
2023/08/31 04:03:34;;;;;;;15.57;10.43;;;;;;;11.52;100.00;100693.09;4964120;28;20070;-74
2023/08/31 04:06:02;;;;;;;16.35;11.13;;;;;;;11.49;100.00;100690.59;4958038;28;20062;-73
2023/08/31 04:08:29;;;;;;;14.75;11.48;;;;;;;11.47;100.00;100697.72;4965337;28;20261;-73
2023/08/31 04:10:56;;;;;;;14.02;11.18;;;;;;;11.47;100.00;100703.84;4964214;28;20310;-72
2023/08/31 04:13:23;;;;;;;15.90;11.90;;;;;;;11.47;100.00;100695.91;4964304;28;20049;-74
2023/08/31 04:15:52;;;;;;;19.48;12.57;;;;;;;11.49;100.00;100704.66;4961765;28;20102;-73
2023/08/31 04:18:19;;;;;;;14.30;11.88;;;;;;;11.49;100.00;100704.66;4964482;28;20067;-75
2023/08/31 04:20:53;;;;;;;17.42;12.90;;;;;;;11.46;100.00;100702.09;4948663;28;20415;-76
2023/08/31 04:23:21;;;;;;;17.92;12.80;;;;;;;11.44;100.00;100709.25;4958453;28;20573;-76
2023/08/31 04:25:48;;;;;;;21.83;13.75;;;;;;;11.42;100.00;100711.06;4961214;28;20090;-75
2023/08/31 04:28:15;;;;;;;16.05;13.18;;;;;;;11.39;100.00;100710.31;4963581;28;20071;-73
2023/08/31 04:30:44;;;;;;;18.92;12.95;;;;;;;11.36;100.00;100713.06;4964255;28;20133;-74
2023/08/31 04:33:11;;;;;;;18.08;13.27;;;;;;;11.34;100.00;100716.63;4962294;28;20058;-74
2023/08/31 04:35:39;;;;;;;16.88;13.98;;;;;;;11.33;100.00;100716.69;4963352;28;20063;-75
2023/08/31 04:38:06;;;;;;;19.83;13.98;;;;;;;11.31;100.00;100715.88;4965257;28;20685;-76
2023/08/31 04:40:33;;;;;;;18.73;12.98;;;;;;;11.32;100.00;100717.59;4962791;28;20066;-75
2023/08/31 04:43:00;;;;;;;17.80;13.07;;;;;;;11.37;100.00;100722.72;4965721;28;20057;-76
2023/08/31 04:45:27;;;;;;;18.33;13.63;;;;;;;11.41;100.00;100722.53;4967848;28;20105;-76
2023/08/31 04:47:55;;;;;;;17.85;13.63;;;;;;;11.40;100.00;100730.50;4964319;28;20066;-76
2023/08/31 04:50:22;;;;;;;13.20;11.32;;;;;;;11.36;100.00;100732.38;4965117;28;20235;-76
2023/08/31 04:52:49;;;;;;;26.00;13.98;;;;;;;11.41;100.00;100735.75;4964995;28;20051;-76
2023/08/31 04:55:16;;;;;;;18.75;12.98;;;;;;;11.39;100.00;100744.63;4966168;28;20038;-76
2023/08/31 04:57:43;;;;;;;13.57;11.48;;;;;;;11.43;100.00;100746.22;4964703;28;20121;-76
2023/08/31 05:00:11;;;;;;;16.20;12.60;;;;;;;11.46;100.00;100746.13;4965626;28;20039;-75
2023/08/31 05:02:39;;;;;;;15.48;12.73;;;;;;;11.49;100.00;100753.97;4967863;28;20121;-76
2023/08/31 05:05:07;;;;;;;16.40;12.82;;;;;;;11.53;100.00;100759.97;4964520;28;20042;-73
2023/08/31 05:07:34;;;;;;;17.67;13.48;;;;;;;11.60;100.00;100762.31;4963728;28;20062;-75
2023/08/31 05:10:02;;;;;;;14.77;12.52;;;;;;;11.68;100.00;100771.78;4965098;28;20039;-76
2023/08/31 05:12:29;;;;;;;16.83;12.32;;;;;;;11.70;100.00;100773.44;4966564;28;20070;-76
2023/08/31 05:14:56;;;;;;;17.52;13.38;;;;;;;11.72;100.00;100776.00;4964233;28;20113;-75
2023/08/31 05:17:23;;;;;;;15.25;13.60;;;;;;;11.70;100.00;100775.22;4967030;28;20038;-74
2023/08/31 05:19:50;;;;;;;18.00;14.57;;;;;;;11.69;100.00;100787.56;4964593;28;20117;-74
2023/08/31 05:22:17;;;;;;;22.75;14.73;;;;;;;11.69;100.00;100792.00;4966043;28;20050;-74
2023/08/31 05:24:44;;;;;;;17.67;13.70;;;;;;;11.95;100.00;100789.25;4968111;28;20197;-74
2023/08/31 05:27:12;;;;;;;15.45;13.30;;;;;;;12.06;100.00;100790.66;4964693;28;20043;-75
2023/08/31 05:29:39;;;;;;;17.02;13.55;;;;;;;12.02;100.00;100784.63;4966943;28;20047;-74
2023/08/31 05:32:06;;;;;;;17.60;13.70;;;;;;;11.91;100.00;100792.06;4965624;28;20042;-75
2023/08/31 05:34:37;;;;;;;17.65;12.80;;;;;;;11.82;100.00;100793.25;4967989;28;20736;-74
2023/08/31 05:37:06;;;;;;;17.80;12.68;;;;;;;11.78;100.00;100789.84;4967666;28;20038;-73
2023/08/31 05:39:34;;;;;;;15.52;12.45;;;;;;;11.78;100.00;100787.22;4964474;28;20050;-73
2023/08/31 05:42:01;;;;;;;18.02;12.40;;;;;;;11.80;100.00;100793.31;4964645;28;20806;-73
2023/08/31 05:44:30;;;;;;;19.10;11.80;;;;;;;11.85;100.00;100790.50;4961771;28;20054;-74
2023/08/31 05:46:57;;;;;;;16.50;11.60;;;;;;;11.89;100.00;100792.13;4962457;28;20089;-75
2023/08/31 05:49:24;;;;;;;16.90;12.20;;;;;;;11.89;100.00;100797.41;4964441;28;20205;-72
2023/08/31 05:51:51;;;;;;;17.20;11.60;;;;;;;11.89;100.00;100804.47;4966334;28;20394;-75
2023/08/31 05:54:18;;;;;;;14.52;11.60;;;;;;;11.83;100.00;100792.34;4962849;28;20051;-74
2023/08/31 05:56:47;;;;;;;15.38;10.82;;;;;;;11.85;100.00;100794.94;4964790;28;20539;-74
2023/08/31 05:59:14;;;;;;;14.68;10.65;;;;;;;11.85;100.00;100800.22;4966940;28;20520;-73
2023/08/31 06:01:43;;;;;;;12.70;10.77;;;;;;;11.91;100.00;100802.63;4967595;28;20474;-76
2023/08/31 06:04:10;;;;;;;14.20;11.15;;;;;;;12.00;100.00;100806.75;4966726;28;20119;-74
2023/08/31 06:06:37;;;;;;;17.10;10.75;;;;;;;12.10;100.00;100816.06;4964235;28;20053;-74
2023/08/31 06:09:06;;;;;;;13.25;9.52;;;;;;;12.16;100.00;100809.69;4965885;28;20790;-74
2023/08/31 06:11:34;;;;;;;13.63;9.98;;;;;;;12.19;100.00;100814.84;4965462;28;20043;-74
2023/08/31 06:14:03;;;;;;;14.88;9.70;;;;;;;12.20;100.00;100813.94;4965364;28;20054;-75
2023/08/31 06:16:30;;;;;;;16.45;8.95;;;;;;;12.19;100.00;100821.00;4967098;28;20055;-75
2023/08/31 06:18:58;;;;;;;17.70;9.02;;;;;;;12.16;100.00;100817.63;4964974;28;20130;-75
2023/08/31 06:21:25;;;;;;;11.65;8.63;;;;;;;12.20;100.00;100816.56;4961554;28;20038;-76
2023/08/31 06:23:52;;;;;;;13.38;8.57;;;;;;;12.20;100.00;100821.84;4967071;28;20034;-75
2023/08/31 06:26:19;;;;;;;18.38;9.05;;;;;;;12.30;100.00;100825.88;4965000;28;20101;-74
2023/08/31 06:28:46;;;;;;;15.35;8.50;;;;;;;12.42;100.00;100827.19;4965244;28;20122;-75
2023/08/31 06:31:13;;;;;;;14.65;8.63;;;;;;;12.57;99.98;100831.91;4965093;28;20043;-74
2023/08/31 06:33:40;;;;;;;14.38;8.10;;;;;;;12.74;99.64;100835.66;4947572;28;20051;-75
2023/08/31 06:36:07;;;;;;;11.40;7.90;;;;;;;12.89;99.07;100828.88;4966174;28;20047;-75
2023/08/31 06:38:35;;;;;;;14.77;8.43;;;;;;;13.02;99.11;100829.28;4966516;28;20724;-75
2023/08/31 06:41:02;;;;;;;14.35;7.28;;;;;;;13.16;98.99;100826.91;4966445;28;20047;-74
2023/08/31 06:43:29;;;;;;;8.52;6.82;;;;;;;13.26;98.61;100835.34;4966248;28;20058;-74
2023/08/31 06:45:56;;;;;;;14.10;7.35;;;;;;;13.36;98.33;100827.84;4967548;28;20503;-74
2023/08/31 06:48:36;;;;;;;9.13;6.32;;;;;;;13.51;98.17;100834.31;4945985;28;20042;-75
2023/08/31 06:51:03;;;;;;;9.32;6.68;;;;;;;13.61;97.80;100830.34;4959623;28;20042;-75
2023/08/31 06:53:34;;;;;;;13.15;6.32;;;;;;;13.69;96.80;100837.09;4964982;28;20050;-75
2023/08/31 06:56:01;;;;;;;11.82;6.53;;;;;;;13.86;95.71;100842.53;4962991;28;20319;-74
2023/08/31 06:58:28;;;;;;;14.80;6.13;;;;;;;13.86;95.51;100837.25;4966945;28;20058;-74
2023/08/31 07:00:55;;;;;;;8.25;5.78;;;;;;;13.87;95.31;100843.38;4965044;28;20089;-74
2023/08/31 07:03:22;;;;;;;10.60;6.20;;;;;;;13.89;94.79;100844.19;4965482;28;20566;-74
2023/08/31 07:05:54;;;;;;;9.60;6.20;;;;;;;13.86;94.39;100844.31;4965506;28;20082;-74
2023/08/31 07:08:21;;;;;;;8.02;5.57;;;;;;;13.90;93.83;100845.91;4965413;28;20045;-74
2023/08/31 07:10:50;;;;;;;21.73;6.68;;;;;;;13.94;93.87;100843.06;4965915;28;20047;-75
2023/08/31 07:13:17;;;;;;;8.88;6.13;;;;;;;14.06;94.17;100854.88;4966913;28;20751;-74
2023/08/31 07:15:45;;;;;;;10.23;6.40;;;;;;;14.11;94.31;100847.59;4966041;28;20043;-75
2023/08/31 07:18:12;;;;;;;11.40;5.78;;;;;;;14.28;94.14;100854.81;4965086;28;20042;-75
2023/08/31 07:20:39;;;;;;;7.45;5.75;;;;;;;14.50;93.64;100853.78;4965416;28;20046;-75
2023/08/31 07:23:06;;;;;;;7.88;5.78;;;;;;;14.72;92.98;100856.34;4966415;28;20694;-75
2023/08/31 07:25:33;;;;;;;8.35;5.63;;;;;;;14.84;92.25;100859.34;4967061;28;20039;-74
2023/08/31 07:28:03;;;;;;;7.95;5.22;;;;;;;14.81;92.08;100865.63;4966158;28;20047;-74
2023/08/31 07:30:30;;;;;;;8.52;6.13;;;;;;;14.90;91.90;100869.66;4966625;28;20047;-75
2023/08/31 07:32:59;;;;;;;16.38;6.13;;;;;;;15.12;91.59;100864.16;4965109;28;20055;-74
2023/08/31 07:35:27;;;;;;;19.75;6.55;;;;;;;15.44;90.92;100866.16;4966433;28;20452;-75
2023/08/31 07:37:54;;;;;;;7.53;5.35;;;;;;;15.61;89.69;100873.28;4965264;28;20039;-75
2023/08/31 07:40:21;;;;;;;10.57;5.30;;;;;;;15.69;89.43;100871.09;4966891;28;20066;-74
2023/08/31 07:42:48;;;;;;;10.80;5.43;;;;;;;15.75;87.77;100865.44;4965896;28;20039;-74
2023/08/31 07:45:16;;;;;;;6.53;5.30;;;;;;;15.77;86.92;100868.91;4966699;28;20117;-74
2023/08/31 07:47:43;;;;;;;9.80;5.45;;;;;;;15.75;87.33;100868.09;4957148;28;20631;-74
2023/08/31 07:50:10;;;;;;;12.75;5.70;;;;;;;15.80;86.70;100862.56;4966553;28;20042;-75
2023/08/31 07:52:38;;;;;;;9.40;4.90;;;;;;;15.89;85.82;100872.72;4966416;28;20518;-75
2023/08/31 07:55:06;;;;;;;8.00;4.53;;;;;;;15.98;84.75;100877.56;4965457;28;20043;-74
2023/08/31 07:57:34;;;;;;;8.70;5.10;;;;;;;16.05;84.21;100880.78;4965665;28;20070;-75
2023/08/31 08:00:01;;;;;;;10.25;4.82;;;;;;;16.09;84.92;100886.78;4965623;28;20526;-75
2023/08/31 08:02:39;;;;;;;14.20;4.88;;;;;;;16.11;83.98;100882.25;4966038;28;20051;-74
2023/08/31 08:05:07;;;;;;;9.45;4.93;;;;;;;16.20;84.61;100889.72;4966117;28;20054;-75
2023/08/31 08:07:34;;;;;;;8.02;4.57;;;;;;;16.32;83.82;100892.69;4965769;28;20066;-75
2023/08/31 08:10:01;;;;;;;8.95;4.90;;;;;;;16.45;84.13;100885.78;4964911;28;20042;-74
2023/08/31 08:12:40;;;;;;;7.43;4.78;;;;;;;16.60;84.28;100889.41;4966282;28;20050;-74
2023/08/31 08:15:08;;;;;;;7.97;4.60;;;;;;;16.80;83.87;100890.94;4966232;28;20114;-74
2023/08/31 08:17:36;;;;;;;7.40;4.45;;;;;;;16.73;83.92;100890.44;4971748;28;20039;-74
2023/08/31 08:20:05;;;;;;;6.47;4.63;;;;;;;16.84;83.65;100891.66;4971317;28;20407;-74
2023/08/31 08:22:32;;;;;;;10.20;5.07;;;;;;;16.96;83.91;100885.63;4970994;28;20498;-75
2023/08/31 08:24:59;;;;;;;11.07;5.05;;;;;;;17.11;83.62;100886.56;4972624;28;20049;-75
2023/08/31 08:27:27;;;;;;;8.20;4.43;;;;;;;17.36;82.05;100893.16;4971852;28;20077;-75
2023/08/31 08:29:54;;;;;;;7.47;4.45;;;;;;;17.59;79.52;100881.16;4972352;28;20034;-74
2023/08/31 08:32:21;;;;;;;16.02;4.60;;;;;;;17.68;80.70;100888.59;4970719;28;20046;-75
2023/08/31 08:34:48;;;;;;;17.30;4.63;;;;;;;17.66;78.50;100886.97;4963445;28;20496;-75
2023/08/31 08:37:15;;;;;;;26.00;4.57;;;;;;;17.64;77.95;100891.53;4965148;28;20447;-76
2023/08/31 08:39:42;;;;;;;13.07;3.97;;;;;;;17.64;76.25;100886.19;4966074;28;20101;-73
2023/08/31 08:42:11;;;;;;;10.93;3.65;;;;;;;17.66;74.91;100893.16;4968859;28;20043;-75
2023/08/31 08:44:39;;;;;;;9.27;3.45;;;;;;;17.65;74.60;100888.78;4969560;28;20042;-75
2023/08/31 08:47:07;;;;;;;13.82;4.30;;;;;;;17.69;75.36;100894.81;4971619;28;20071;-76
2023/08/31 08:49:36;;;;;;;9.82;4.28;;;;;;;17.72;76.08;100894.59;4971297;28;20050;-74
2023/08/31 08:52:04;;;;;;;13.90;4.93;;;;;;;17.78;76.42;100898.72;4971549;28;20117;-76
2023/08/31 08:54:32;;;;;;;7.88;3.88;;;;;;;17.85;76.62;100900.09;4965771;28;20035;-74
2023/08/31 08:57:00;;;;;;;15.07;4.35;;;;;;;17.93;74.40;100894.25;4973082;28;20046;-73
2023/08/31 08:59:28;;;;;;;16.60;4.25;;;;;;;18.00;74.29;100893.00;4968386;28;20264;-74
2023/08/31 09:01:55;;;;;;;15.32;3.90;;;;;;;18.08;73.52;100898.72;4972389;28;20035;-74
2023/08/31 09:04:22;;;;;;;10.60;4.15;;;;;;;18.20;73.72;100896.25;4970830;28;20047;-74
2023/08/31 09:06:53;;;;;;;15.65;4.30;;;;;;;18.30;74.02;100898.25;4971384;28;20055;-73
2023/08/31 09:09:21;;;;;;;10.52;4.05;;;;;;;18.45;74.16;100904.44;4970302;28;20047;-74
2023/08/31 09:11:49;;;;;;;28.27;4.75;;;;;;;18.65;72.84;100904.13;4970586;28;20053;-74
2023/08/31 09:14:19;;;;;;;18.58;3.92;;;;;;;18.75;71.73;100899.94;4970980;28;20050;-74
2023/08/31 09:16:49;;;;;;;19.63;3.90;;;;;;;18.76;69.56;100898.97;4972022;28;20042;-73
2023/08/31 09:19:27;;;;;;;17.02;4.45;;;;;;;18.72;70.49;100903.63;4952851;28;20058;-74
2023/08/31 09:21:56;;;;;;;13.05;3.75;;;;;;;18.72;69.57;100906.28;4971643;28;20659;-75
2023/08/31 09:24:24;;;;;;;8.32;3.20;;;;;;;18.72;69.31;100903.63;4971089;28;20077;-75
2023/08/31 09:26:58;;;;;;;14.68;3.88;;;;;;;18.91;69.66;100911.31;4971164;28;20039;-75
2023/08/31 09:29:25;;;;;;;7.93;2.90;;;;;;;19.09;67.85;100905.78;4967189;28;20047;-74
2023/08/31 09:31:52;;;;;;;13.27;3.58;;;;;;;19.08;67.78;100904.94;4967660;28;20045;-74
2023/08/31 09:34:20;;;;;;;14.82;3.85;;;;;;;19.21;66.93;100913.00;4966760;28;20057;-74
2023/08/31 09:36:49;;;;;;;16.42;4.00;;;;;;;19.29;66.71;100907.16;4969481;28;20122;-75
2023/08/31 09:39:16;;;;;;;9.70;3.28;;;;;;;19.34;63.14;100920.22;4968124;28;20515;-75
2023/08/31 09:41:56;;;;;;;7.47;2.80;;;;;;;19.49;62.66;100912.97;4966385;28;20476;-75
2023/08/31 09:44:23;;;;;;;23.52;3.65;;;;;;;19.54;62.38;100908.16;4967193;28;20042;-75
2023/08/31 09:46:52;;;;;;;10.20;2.95;;;;;;;19.70;61.33;100926.72;4966825;28;20214;-75
2023/08/31 09:49:21;;;;;;;40.90;4.75;;;;;;;19.73;60.73;100914.97;4966755;28;20043;-75
2023/08/31 09:51:50;;;;;;;28.40;3.38;;;;;;;19.79;60.93;100917.22;4966105;28;20170;-74
2023/08/31 09:54:21;;;;;;;20.52;3.10;;;;;;;19.73;60.34;100913.16;4967400;28;20043;-75
2023/08/31 09:56:49;;;;;;;13.73;2.58;;;;;;;19.78;59.42;100913.69;4968000;28;20600;-75
2023/08/31 09:59:16;;;;;;;4.20;1.80;;;;;;;19.70;56.65;100916.00;4968734;28;20057;-74
2023/08/31 10:01:47;;;;;;;3.47;1.60;;;;;;;19.91;55.67;100918.22;4964630;28;20047;-74
2023/08/31 10:04:17;;;;;;;10.18;2.08;;;;;;;19.92;55.23;100923.50;4963689;28;20043;-75
2023/08/31 10:06:44;;;;;;;23.73;3.10;;;;;;;19.86;56.66;100911.38;4967015;28;20057;-74
2023/08/31 10:09:14;;;;;;;12.55;1.80;;;;;;;19.90;54.28;100914.69;4964168;28;20049;-75
2023/08/31 10:11:45;;;;;;;15.07;2.55;;;;;;;20.06;55.31;100909.16;4967468;28;20413;-74
2023/08/31 10:14:13;;;;;;;12.98;2.42;;;;;;;19.93;55.58;100921.66;4964057;28;20467;-74
2023/08/31 10:16:44;;;;;;;5.70;1.70;;;;;;;19.97;55.17;100905.28;4964586;28;20039;-76
2023/08/31 10:19:11;;;;;;;11.43;2.13;;;;;;;19.90;56.87;100909.34;4966863;28;20078;-75
2023/08/31 10:21:40;;;;;;;9.60;2.38;;;;;;;19.99;57.14;100908.72;4965310;28;20492;-74
2023/08/31 10:24:08;;;;;;;12.88;2.15;;;;;;;20.04;56.97;100918.25;4967354;28;20058;-73
2023/08/31 10:26:35;;;;;;;11.05;2.30;;;;;;;20.12;56.22;100914.06;4950621;28;20057;-74
2023/08/31 10:29:04;;;;;;;4.05;1.55;;;;;;;20.20;54.79;100923.38;4967109;28;20042;-74
2023/08/31 10:31:34;;;;;;;5.15;1.63;;;;;;;20.20;55.58;100918.88;4965603;28;20420;-74
2023/08/31 10:34:04;;;;;;;6.70;1.80;;;;;;;20.26;55.81;100906.91;4964107;28;20594;-75
2023/08/31 10:36:41;;;;;;;4.22;1.90;;;;;;;20.24;56.51;100915.06;4966863;28;20039;-75
2023/08/31 10:39:17;;;;;;;5.30;2.05;;;;;;;20.11;57.25;100917.69;4967054;28;20125;-75
2023/08/31 10:41:56;;;;;;;5.40;1.88;;;;;;;20.20;57.13;100923.38;4964969;28;20197;-74
2023/08/31 10:44:26;;;;;;;5.35;1.77;;;;;;;20.06;55.63;100910.94;4964915;28;20053;-74
2023/08/31 10:46:54;;;;;;;4.28;1.88;;;;;;;20.08;56.45;100901.88;4957644;28;20109;-73
2023/08/31 10:49:23;;;;;;;4.28;1.90;;;;;;;20.16;57.39;100910.22;4966167;28;20077;-75
2023/08/31 10:51:56;;;;;;;5.32;2.22;;;;;;;20.25;57.51;100906.03;4966096;28;20049;-75
2023/08/31 10:54:34;;;;;;;6.00;2.33;;;;;;;20.43;58.05;100903.03;4966690;28;20043;-75
2023/08/31 10:57:08;;;;;;;3.63;1.75;;;;;;;20.58;56.09;100891.22;4967212;28;20081;-75
2023/08/31 11:00:02;;;;;;;9.70;2.38;;;;;;;20.59;55.91;100892.09;4964318;28;20047;-74
2023/08/31 11:02:42;;;;;;;8.75;2.17;;;;;;;20.82;56.52;100895.81;4963087;28;20074;-75
2023/08/31 11:05:19;;;;;;;6.45;1.95;;;;;;;21.12;55.18;100893.63;4969895;28;20035;-74
2023/08/31 11:07:52;;;;;;;5.88;2.10;;;;;;;21.19;53.43;100900.28;4966411;28;20382;-74
2023/08/31 11:10:27;;;;;;;11.40;2.22;;;;;;;21.36;54.05;100882.94;4965669;28;20042;-74
2023/08/31 11:12:57;;;;;;;3.70;1.40;;;;;;;21.52;53.45;100890.66;4964630;28;20053;-74
2023/08/31 11:15:27;;;;;;;6.85;1.75;;;;;;;21.56;52.39;100887.66;4964724;28;20715;-74
2023/08/31 11:17:56;;;;;;;9.63;2.17;;;;;;;21.56;51.12;100881.41;4964098;28;20065;-74
2023/08/31 11:20:31;;;;;;;5.72;1.77;;;;;;;21.62;51.07;100880.13;4964215;28;20126;-74
2023/08/31 11:22:58;;;;;;;5.00;2.00;;;;;;;21.60;51.84;100882.94;4965112;28;20051;-75
2023/08/31 11:25:26;;;;;;;5.65;2.00;;;;;;;21.59;51.34;100878.53;4965250;28;20133;-74